createdAt,value
2023-10-28T00:00:51.912Z,99418.38
2023-10-28T00:03:19.163Z,99416.22
2023-10-28T00:05:45.996Z,99424.63
2023-10-28T00:08:12.697Z,99326.00
2023-10-28T00:10:41.848Z,99421.38
2023-10-28T00:13:10.101Z,99418.06
2023-10-28T00:15:37.139Z,99424.63
2023-10-28T00:18:08.144Z,99395.56
2023-10-28T00:20:35.777Z,99418.91
2023-10-28T00:23:05.826Z,99400.03
2023-10-28T00:25:32.972Z,99417.09
2023-10-28T00:28:00.598Z,99421.78
2023-10-28T00:30:27.932Z,99366.28
2023-10-28T00:33:03.713Z,99422.22
2023-10-28T00:35:30.623Z,99417.28
2023-10-28T00:37:58.483Z,99412.47
2023-10-28T00:40:32.237Z,99422.59
2023-10-28T00:43:00.008Z,99244.09
2023-10-28T00:45:28.665Z,99427.09
2023-10-28T00:47:57.829Z,99435.63
2023-10-28T00:50:24.924Z,99311.91
2023-10-28T00:52:57.095Z,99437.31
2023-10-28T00:55:24.969Z,99380.84
2023-10-28T00:57:52.990Z,99431.41
2023-10-28T01:00:21.765Z,99417.13
2023-10-28T01:02:49.672Z,99427.94
2023-10-28T01:05:17.729Z,99418.25
2023-10-28T01:07:46.965Z,99431.91
2023-10-28T01:10:25.358Z,99392.03
2023-10-28T01:12:52.044Z,99312.63
2023-10-28T01:15:18.991Z,99428.75
2023-10-28T01:17:46.605Z,99369.09
2023-10-28T01:20:13.484Z,99302.72
2023-10-28T01:22:40.298Z,99407.41
2023-10-28T01:25:07.688Z,99321.81
2023-10-28T01:27:35.019Z,99413.03
2023-10-28T01:30:01.913Z,99414.28
2023-10-28T01:32:29.107Z,99380.00
2023-10-28T01:34:56.050Z,99418.75
2023-10-28T01:37:23.613Z,99406.50
2023-10-28T01:39:52.879Z,99419.41
2023-10-28T01:42:22.099Z,99384.41
2023-10-28T01:44:50.390Z,99427.84
2023-10-28T01:47:17.623Z,99408.69
2023-10-28T01:49:44.965Z,99395.75
2023-10-28T01:52:13.563Z,99428.03
2023-10-28T01:54:40.571Z,99294.03
2023-10-28T01:57:10.795Z,99427.34
2023-10-28T01:59:39.745Z,99360.47
2023-10-28T02:02:08.673Z,99392.63
2023-10-28T02:04:35.777Z,99414.16
2023-10-28T02:07:02.776Z,99429.81
2023-10-28T02:09:30.168Z,99403.53
2023-10-28T02:11:57.241Z,99431.69
2023-10-28T02:14:25.782Z,99428.75
2023-10-28T02:16:53.236Z,99292.41
2023-10-28T02:19:22.207Z,99408.81
2023-10-28T02:22:02.696Z,99350.50
2023-10-28T02:24:35.274Z,99404.34
2023-10-28T02:27:02.153Z,99380.34
2023-10-28T02:29:28.915Z,99424.41
2023-10-28T02:31:55.696Z,99424.09
2023-10-28T02:34:22.612Z,99358.13
2023-10-28T02:36:51.159Z,99414.97
2023-10-28T02:39:18.946Z,99420.72
2023-10-28T02:41:45.882Z,99426.84
2023-10-28T02:44:13.249Z,99437.72
2023-10-28T02:46:40.804Z,99415.06
2023-10-28T02:49:07.910Z,99354.47
2023-10-28T02:51:34.632Z,99396.97
2023-10-28T02:54:02.423Z,99422.16
2023-10-28T02:56:29.217Z,99404.47
2023-10-28T02:58:56.405Z,99427.03
2023-10-28T03:01:23.558Z,99405.41
2023-10-28T03:03:50.398Z,99401.91
2023-10-28T03:06:17.460Z,99412.75
2023-10-28T03:08:44.152Z,99434.13
2023-10-28T03:11:11.169Z,99428.44
2023-10-28T03:13:37.982Z,99429.22
2023-10-28T03:16:05.357Z,99410.28
2023-10-28T03:18:32.629Z,99430.00
2023-10-28T03:20:59.891Z,99359.66
2023-10-28T03:23:26.671Z,99304.97
2023-10-28T03:25:53.484Z,99429.16
2023-10-28T03:28:20.553Z,99419.16
2023-10-28T03:30:47.657Z,99385.75
2023-10-28T03:33:14.584Z,99421.97
2023-10-28T03:35:41.498Z,99412.53
2023-10-28T03:38:08.388Z,99403.00
2023-10-28T03:40:35.553Z,99420.88
2023-10-28T03:43:02.806Z,99397.38
2023-10-28T03:45:29.592Z,99424.16
2023-10-28T03:47:56.482Z,99422.56
2023-10-28T03:50:23.658Z,99392.63
2023-10-28T03:52:50.468Z,99419.31
2023-10-28T03:55:17.327Z,99443.69
2023-10-28T04:29:31.829Z,99347.09
2023-10-28T04:32:03.465Z,99412.63
2023-10-28T04:34:40.280Z,99409.91
2023-10-28T04:37:15.505Z,99375.28
2023-10-28T04:39:42.237Z,99389.31
2023-10-28T04:42:09.070Z,99376.94
2023-10-28T04:44:35.794Z,99406.09
2023-10-28T04:47:02.726Z,99429.78
2023-10-28T04:49:30.742Z,99388.13
2023-10-28T04:51:57.605Z,99431.19
2023-10-28T04:54:24.292Z,99436.34
2023-10-28T04:56:50.993Z,99393.97
2023-10-28T04:59:17.762Z,99427.44
2023-10-28T05:01:44.641Z,99394.31
2023-10-28T05:04:11.377Z,99432.50
2023-10-28T05:06:38.317Z,99429.59
2023-10-28T05:09:05.144Z,99430.69
2023-10-28T05:11:31.963Z,99438.81
2023-10-28T05:13:58.714Z,99430.56
2023-10-28T05:16:25.576Z,99432.38
2023-10-28T05:18:52.298Z,99412.56
2023-10-28T05:21:19.132Z,99427.66
2023-10-28T05:23:45.926Z,99442.59
2023-10-28T05:26:12.737Z,99378.63
2023-10-28T05:28:39.487Z,99411.47
2023-10-28T05:31:07.545Z,99432.28
2023-10-28T05:33:34.377Z,99448.22
2023-10-28T05:36:01.156Z,99447.94
2023-10-28T05:38:27.850Z,99458.94
2023-10-28T05:40:55.959Z,99444.81
2023-10-28T05:43:22.746Z,99435.19
2023-10-28T05:45:51.847Z,99430.31
2023-10-28T05:48:19.201Z,99447.72
2023-10-28T05:50:45.926Z,99458.81
2023-10-28T05:53:12.732Z,99413.13
2023-10-28T05:55:39.438Z,99459.00
2023-10-28T05:58:06.883Z,99464.75
2023-10-28T06:00:34.349Z,99312.69
2023-10-28T06:03:01.181Z,99479.44
2023-10-28T06:05:28.007Z,99283.75
2023-10-28T06:07:54.824Z,99473.88
2023-10-28T06:10:24.065Z,99470.38
2023-10-28T06:12:50.858Z,99421.56
2023-10-28T06:15:20.317Z,99479.53
2023-10-28T06:17:47.946Z,99480.81
2023-10-28T06:20:14.737Z,99429.69
2023-10-28T06:22:41.542Z,99488.59
2023-10-28T06:25:08.650Z,99493.72
2023-10-28T06:27:35.405Z,99456.28
2023-10-28T06:30:02.404Z,99489.78
2023-10-28T06:32:29.276Z,99493.69
2023-10-28T06:34:56.687Z,99496.53
2023-10-28T06:37:24.881Z,99497.66
2023-10-28T06:39:52.675Z,99466.53
2023-10-28T06:42:19.464Z,99505.31
2023-10-28T06:44:46.168Z,99496.38
2023-10-28T06:47:13.233Z,99505.69
2023-10-28T06:49:39.975Z,99458.75
2023-10-28T06:52:06.930Z,99515.13
2023-10-28T06:54:33.652Z,99522.97
2023-10-28T06:57:00.537Z,99524.91
2023-10-28T06:59:27.316Z,99530.16
2023-10-28T07:01:54.333Z,99512.44
2023-10-28T07:04:23.547Z,99499.66
2023-10-28T07:06:51.025Z,99526.56
2023-10-28T07:09:19.228Z,99520.06
2023-10-28T07:11:45.987Z,99466.53
2023-10-28T07:14:12.752Z,99526.63
2023-10-28T07:16:39.839Z,99516.78
2023-10-28T07:19:06.623Z,99501.63
2023-10-28T07:21:33.316Z,99531.09
2023-10-28T07:24:02.124Z,99548.53
2023-10-28T07:26:30.582Z,99518.31
2023-10-28T07:28:58.271Z,99544.03
2023-10-28T07:31:25.055Z,99541.75
2023-10-28T07:33:51.750Z,99359.22
2023-10-28T07:36:18.647Z,99531.97
2023-10-28T07:38:46.215Z,99490.94
2023-10-28T07:41:13.030Z,99547.81
2023-10-28T07:43:39.731Z,99563.53
2023-10-28T07:46:06.501Z,99490.06
2023-10-28T07:48:33.226Z,99557.91
2023-10-28T07:51:00.788Z,99554.75
2023-10-28T07:53:28.023Z,99559.50
2023-10-28T07:55:54.845Z,99556.25
2023-10-28T07:58:21.582Z,99459.97
2023-10-28T08:00:48.483Z,99567.75
2023-10-28T08:03:17.567Z,99573.72
2023-10-28T08:05:45.797Z,99574.91
2023-10-28T08:08:12.573Z,99581.81
2023-10-28T08:10:42.789Z,99578.19
2023-10-28T08:13:09.531Z,99575.38
2023-10-28T08:15:36.231Z,99581.56
2023-10-28T08:18:02.967Z,99556.47
2023-10-28T08:20:29.878Z,99578.56
2023-10-28T08:22:57.579Z,99579.19
2023-10-28T08:25:24.352Z,99580.16
2023-10-28T08:27:51.999Z,99545.16
2023-10-28T08:30:18.840Z,99591.78
2023-10-28T08:32:46.202Z,99585.91
2023-10-28T08:35:13.348Z,99562.78
2023-10-28T08:37:40.508Z,99588.91
2023-10-28T08:40:12.263Z,99574.97
2023-10-28T08:42:39.696Z,99587.84
2023-10-28T08:45:08.569Z,99560.22
2023-10-28T08:47:38.287Z,99595.94
2023-10-28T08:50:08.400Z,99591.88
2023-10-28T08:52:40.956Z,99594.88
2023-10-28T08:55:12.341Z,99587.47
2023-10-28T08:57:45.274Z,99596.28
2023-10-28T09:00:16.332Z,99540.22
2023-10-28T09:02:46.448Z,99587.81
2023-10-28T09:05:14.352Z,99551.34
2023-10-28T09:07:41.254Z,99600.47
2023-10-28T09:10:08.524Z,99594.47
2023-10-28T09:12:35.646Z,99599.13
2023-10-28T09:15:02.510Z,99585.59
2023-10-28T09:17:29.349Z,99585.31
2023-10-28T09:19:57.406Z,99611.84
2023-10-28T09:22:25.398Z,99595.59
2023-10-28T09:24:56.210Z,99508.50
2023-10-28T09:27:22.982Z,99532.22
2023-10-28T09:29:50.016Z,99613.47
2023-10-28T09:32:19.663Z,99613.34
2023-10-28T09:34:46.428Z,99620.69
2023-10-28T09:37:14.208Z,99604.59
2023-10-28T09:39:42.609Z,99623.88
2023-10-28T09:42:11.053Z,99623.38
2023-10-28T09:44:38.156Z,99594.78
2023-10-28T09:47:06.551Z,99625.59
2023-10-28T09:49:33.331Z,99579.81
2023-10-28T09:52:07.070Z,99615.63
2023-10-28T09:54:36.616Z,99630.22
2023-10-28T09:57:04.562Z,99624.91
2023-10-28T09:59:35.873Z,99647.47
2023-10-28T10:02:51.783Z,99638.38
2023-10-28T10:05:40.627Z,99626.09
2023-10-28T10:08:20.591Z,99595.44
2023-10-28T10:10:48.994Z,99621.88
2023-10-28T10:13:18.668Z,99614.16
2023-10-28T10:16:04.961Z,99601.38
2023-10-28T10:18:40.784Z,99584.69
2023-10-28T10:21:12.462Z,99640.63
2023-10-28T10:23:44.764Z,99634.34
2023-10-28T10:26:27.559Z,99640.59
2023-10-28T10:28:56.721Z,99636.44
2023-10-28T10:31:24.703Z,99627.22
2023-10-28T10:34:02.728Z,99626.69
2023-10-28T10:36:30.615Z,99508.41
2023-10-28T10:39:12.408Z,99624.75
2023-10-28T10:41:40.555Z,99598.19
2023-10-28T10:44:37.286Z,99625.75
2023-10-28T10:47:09.433Z,99637.69
2023-10-28T10:49:41.637Z,99633.88
2023-10-28T10:52:09.953Z,99602.31
2023-10-28T10:54:40.546Z,99572.69
2023-10-28T10:57:08.870Z,99627.44
2023-10-28T10:59:39.697Z,99583.50
2023-10-28T11:02:07.435Z,99576.22
2023-10-28T11:04:35.531Z,99620.38
2023-10-28T11:07:04.231Z,99638.47
2023-10-28T11:09:31.145Z,99599.03
2023-10-28T11:11:58.134Z,99632.38
2023-10-28T11:14:25.575Z,99612.84
2023-10-28T11:16:52.452Z,99590.75
2023-10-28T11:19:20.067Z,99624.34
2023-10-28T11:21:47.955Z,99618.22
2023-10-28T11:24:16.000Z,99591.28
2023-10-28T11:26:47.963Z,99558.38
2023-10-28T11:29:17.901Z,99583.75
2023-10-28T11:31:46.379Z,99630.94
2023-10-28T11:34:15.106Z,99594.28
2023-10-28T11:36:42.432Z,99622.00
2023-10-28T11:39:10.694Z,99601.72
2023-10-28T11:41:37.893Z,99622.03
2023-10-28T11:44:05.178Z,99621.50
2023-10-28T11:46:32.287Z,99584.38
2023-10-28T11:48:59.305Z,99622.72
2023-10-28T11:51:26.864Z,99580.44
2023-10-28T11:53:54.811Z,99529.47
2023-10-28T11:56:21.808Z,99564.56
2023-10-28T11:58:52.089Z,99624.63
2023-10-28T12:01:20.181Z,99549.78
2023-10-28T12:03:47.268Z,99617.59
2023-10-28T12:08:43.978Z,99526.94
2023-10-28T12:11:10.765Z,99573.94
2023-10-28T12:13:37.745Z,99601.31
2023-10-28T12:16:06.512Z,99604.69
2023-10-28T12:18:33.682Z,99592.09
2023-10-28T12:21:01.820Z,99612.88
2023-10-28T12:23:28.695Z,99613.06
2023-10-28T12:25:55.506Z,99611.28
2023-10-28T12:28:23.896Z,99615.25
2023-10-28T12:30:51.998Z,99612.50
2023-10-28T12:33:18.964Z,99536.91
2023-10-28T12:35:45.844Z,99593.25
2023-10-28T12:38:12.849Z,99617.31
2023-10-28T12:40:39.670Z,99604.28
2023-10-28T12:43:06.408Z,99594.59
2023-10-28T12:45:33.206Z,99609.16
2023-10-28T12:48:00.020Z,99583.66
2023-10-28T12:50:26.772Z,99611.72
2023-10-28T12:52:53.882Z,99571.47
2023-10-28T12:55:20.623Z,99615.63
2023-10-28T12:57:47.412Z,99591.59
2023-10-28T13:00:15.559Z,99603.97
2023-10-28T13:02:43.360Z,99568.84
2023-10-28T13:05:10.554Z,99613.06
2023-10-28T13:07:39.138Z,99618.03
2023-10-28T13:10:06.191Z,99592.53
2023-10-28T13:12:33.023Z,99608.53
2023-10-28T13:14:59.710Z,99626.56
2023-10-28T13:17:26.509Z,99618.69
2023-10-28T13:19:53.299Z,99638.47
2023-10-28T13:22:20.068Z,99621.72
2023-10-28T13:24:46.952Z,99589.22
2023-10-28T13:27:13.780Z,99626.28
2023-10-28T13:29:40.601Z,99616.94
2023-10-28T13:32:09.712Z,99634.19
2023-10-28T13:34:36.669Z,99629.56
2023-10-28T13:37:03.513Z,99598.59
2023-10-28T13:39:30.255Z,99622.34
2023-10-28T13:41:57.089Z,99617.97
2023-10-28T13:44:23.827Z,99607.47
2023-10-28T13:46:50.656Z,99615.44
2023-10-28T13:49:21.558Z,99589.94
2023-10-28T13:51:48.584Z,99593.03
2023-10-28T13:54:16.615Z,99647.22
2023-10-28T13:56:43.480Z,99617.59
2023-10-28T13:59:11.452Z,99605.34
2023-10-28T14:01:38.279Z,99621.72
2023-10-28T14:04:06.805Z,99636.31
2023-10-28T14:06:33.584Z,99631.13
2023-10-28T14:09:00.391Z,99559.47
2023-10-28T14:11:27.562Z,99632.88
2023-10-28T14:13:54.321Z,99554.19
2023-10-28T14:16:22.079Z,99582.75
2023-10-28T14:18:51.759Z,99545.81
2023-10-28T14:21:25.685Z,99600.94
2023-10-28T14:23:52.729Z,99629.44
2023-10-28T14:26:20.308Z,99605.41
2023-10-28T14:28:47.504Z,99607.81
2023-10-28T14:31:14.620Z,99635.47
2023-10-28T14:33:42.354Z,99570.75
2023-10-28T14:36:12.168Z,99607.50
2023-10-28T14:38:41.725Z,99541.53
2023-10-28T14:41:10.142Z,99564.31
2023-10-28T14:43:37.228Z,99612.63
2023-10-28T14:46:06.814Z,99637.59
2023-10-28T14:48:33.900Z,99639.75
2023-10-28T14:51:00.960Z,99594.06
2023-10-28T14:53:27.954Z,99633.50
2023-10-28T14:55:55.808Z,99636.81
2023-10-28T14:58:32.833Z,99631.84
2023-10-28T15:01:11.134Z,99611.06
2023-10-28T15:03:39.756Z,99631.84
2023-10-28T15:06:07.784Z,99590.84
2023-10-28T15:08:34.917Z,99606.75
2023-10-28T15:11:09.130Z,99633.78
2023-10-28T15:13:35.957Z,99608.47
2023-10-28T15:16:04.437Z,99640.72
2023-10-28T15:18:31.653Z,99644.03
2023-10-28T15:20:58.367Z,99603.25
2023-10-28T15:23:25.646Z,99622.88
2023-10-28T15:25:52.611Z,99641.44
2023-10-28T15:28:19.373Z,99493.03
2023-10-28T15:30:46.279Z,99627.53
2023-10-28T15:33:13.327Z,99621.97
2023-10-28T15:35:40.120Z,99642.06
2023-10-28T15:38:08.390Z,99642.41
2023-10-28T15:40:38.002Z,99644.31
2023-10-28T15:43:04.809Z,99653.41
2023-10-28T15:45:31.807Z,99630.31
2023-10-28T15:47:58.683Z,99645.50
2023-10-28T15:50:25.626Z,99645.78
2023-10-28T15:52:52.410Z,99618.03
2023-10-28T15:55:19.538Z,99649.31
2023-10-28T15:57:46.458Z,99656.00
2023-10-28T16:00:13.879Z,99651.16
2023-10-28T16:02:41.188Z,99652.19
2023-10-28T16:05:08.686Z,99621.78
2023-10-28T16:07:37.878Z,99620.69
2023-10-28T16:10:06.416Z,99663.50
2023-10-28T16:12:35.271Z,99591.00
2023-10-28T16:15:02.441Z,99600.72
2023-10-28T16:17:29.359Z,99662.31
2023-10-28T16:19:56.711Z,99591.91
2023-10-28T16:22:23.518Z,99668.25
2023-10-28T16:24:50.389Z,99662.81
2023-10-28T16:27:17.817Z,99659.53
2023-10-28T16:29:44.625Z,99599.97
2023-10-28T16:32:11.695Z,99673.78
2023-10-28T16:34:38.949Z,99675.63
2023-10-28T16:37:05.672Z,99449.50
2023-10-28T16:39:32.292Z,99676.03
2023-10-28T16:41:58.927Z,99675.75
2023-10-28T16:44:25.977Z,99681.31
2023-10-28T16:46:52.962Z,99672.84
2023-10-28T16:49:20.254Z,99674.66
2023-10-28T16:51:48.983Z,99677.94
2023-10-28T16:54:15.709Z,99648.84
2023-10-28T16:56:44.504Z,99649.19
2023-10-28T16:59:11.240Z,99534.06
2023-10-28T17:01:40.285Z,99674.47
2023-10-28T17:04:08.997Z,99684.13
2023-10-28T17:06:36.135Z,99636.59
2023-10-28T17:09:04.544Z,99645.28
2023-10-28T17:11:33.332Z,99676.53
2023-10-28T17:14:01.312Z,99677.81
2023-10-28T17:16:31.857Z,99646.72
2023-10-28T17:19:03.565Z,99645.59
2023-10-28T17:21:31.544Z,99695.22
2023-10-28T17:23:59.116Z,99664.94
2023-10-28T17:26:26.499Z,99695.56
2023-10-28T17:28:53.478Z,99679.06
2023-10-28T17:31:20.358Z,99695.06
2023-10-28T17:33:47.043Z,99697.66
2023-10-28T17:36:16.820Z,99619.34
2023-10-28T17:38:45.088Z,99702.06
2023-10-28T17:41:13.456Z,99703.72
2023-10-28T17:43:40.905Z,99706.19
2023-10-28T17:46:10.301Z,99672.53
2023-10-28T17:48:38.187Z,99633.63
2023-10-28T17:51:11.928Z,99713.44
2023-10-28T17:53:40.161Z,99709.41
2023-10-28T17:56:08.820Z,99705.38
2023-10-28T17:58:40.966Z,99708.53
2023-10-28T18:01:08.146Z,99625.34
2023-10-28T18:03:35.262Z,99681.47
2023-10-28T18:06:06.270Z,99705.47
2023-10-28T18:08:35.166Z,99689.25
2023-10-28T18:11:02.145Z,99692.25
2023-10-28T18:13:29.032Z,99674.91
2023-10-28T18:15:55.817Z,99697.41
2023-10-28T18:18:22.989Z,99668.69
2023-10-28T18:20:49.768Z,99701.78
2023-10-28T18:23:20.545Z,99708.34
2023-10-28T18:25:47.464Z,99613.66
2023-10-28T18:28:15.274Z,99641.34
2023-10-28T18:30:42.078Z,99687.72
2023-10-28T18:33:10.678Z,99683.59
2023-10-28T18:35:39.802Z,99701.56
2023-10-28T18:38:07.959Z,99654.25
2023-10-28T18:40:35.030Z,99571.22
2023-10-28T18:43:01.790Z,99709.53
2023-10-28T18:45:28.560Z,99696.00
2023-10-28T18:47:55.408Z,99712.00
2023-10-28T18:50:23.477Z,99716.56
2023-10-28T18:52:50.311Z,99722.94
2023-10-28T18:55:17.443Z,99718.69
2023-10-28T18:57:44.138Z,99681.63
2023-10-28T19:00:11.314Z,99723.78
2023-10-28T19:02:39.085Z,99701.16
2023-10-28T19:05:07.485Z,99725.44
2023-10-28T19:07:34.293Z,99706.63
2023-10-28T19:10:03.355Z,99610.03
2023-10-28T19:12:30.114Z,99729.38
2023-10-28T19:14:56.975Z,99728.72
2023-10-28T19:17:23.757Z,99665.84
2023-10-28T19:19:51.710Z,99717.06
2023-10-28T19:22:18.949Z,99719.66
2023-10-28T19:24:45.774Z,99724.31
2023-10-28T19:27:12.487Z,99705.06
2023-10-28T19:29:39.356Z,99711.38
2023-10-28T19:32:06.488Z,99727.41
2023-10-28T19:34:33.307Z,99700.53
2023-10-28T19:37:00.678Z,99734.72
2023-10-28T19:39:27.476Z,99681.31
2023-10-28T19:41:54.172Z,99732.47
2023-10-28T19:44:21.113Z,99727.91
2023-10-28T19:46:48.681Z,99646.84
2023-10-28T19:49:16.373Z,99710.31
2023-10-28T19:51:43.181Z,99724.38
2023-10-28T19:54:09.942Z,99736.19
2023-10-28T19:56:36.853Z,99675.44
2023-10-28T19:59:06.046Z,99736.31
2023-10-28T20:01:32.868Z,99692.97
2023-10-28T20:04:00.133Z,99745.19
2023-10-28T20:06:27.206Z,99741.72
2023-10-28T20:08:53.986Z,99737.06
2023-10-28T20:11:20.885Z,99705.56
2023-10-28T20:13:51.635Z,99752.91
2023-10-28T20:16:21.891Z,99720.25
2023-10-28T20:18:48.843Z,99728.09
2023-10-28T20:21:17.291Z,99753.53
2023-10-28T20:23:44.372Z,99751.41
2023-10-28T20:26:11.167Z,99761.97
2023-10-28T20:28:38.217Z,99652.88
2023-10-28T20:31:05.190Z,99691.34
2023-10-28T20:33:32.910Z,99733.38
2023-10-28T20:36:00.013Z,99730.59
2023-10-28T20:38:27.713Z,99750.84
2023-10-28T20:40:54.698Z,99762.22
2023-10-28T20:43:23.459Z,99748.88
2023-10-28T20:45:51.146Z,99756.09
2023-10-28T20:48:19.087Z,99754.03
2023-10-28T20:50:46.015Z,99741.84
2023-10-28T20:53:12.879Z,99725.66
2023-10-28T20:55:44.592Z,99754.00
2023-10-28T20:58:11.826Z,99745.78
2023-10-28T21:00:40.461Z,99728.84
2023-10-28T21:03:07.822Z,99726.56
2023-10-28T21:05:35.560Z,99709.31
2023-10-28T21:08:03.622Z,99755.31
2023-10-28T21:10:31.065Z,99735.25
2023-10-28T21:12:58.379Z,99709.84
2023-10-28T21:15:25.960Z,99747.13
2023-10-28T21:17:53.415Z,99751.03
2023-10-28T21:20:20.727Z,99708.31
2023-10-28T21:22:49.229Z,99672.38
2023-10-28T21:25:16.442Z,99740.69
2023-10-28T21:27:43.245Z,99742.59
2023-10-28T21:30:10.228Z,99748.06
2023-10-28T21:32:37.475Z,99738.22
2023-10-28T21:35:04.781Z,99694.00
2023-10-28T21:37:31.644Z,99740.44
2023-10-28T21:39:59.763Z,99707.31
2023-10-28T21:42:26.552Z,99650.47
2023-10-28T21:44:54.082Z,99719.34
2023-10-28T21:47:21.152Z,99696.97
2023-10-28T21:49:48.220Z,99687.00
2023-10-28T21:52:15.224Z,99747.00
2023-10-28T21:54:41.941Z,99749.34
2023-10-28T21:57:08.872Z,99741.47
2023-10-28T21:59:38.999Z,99736.34
2023-10-28T22:02:11.933Z,99750.31
2023-10-28T22:04:42.774Z,99748.69
2023-10-28T22:07:14.798Z,99749.72
2023-10-28T22:09:41.878Z,99740.81
2023-10-28T22:12:09.733Z,99749.13
2023-10-28T22:14:36.577Z,99752.28
2023-10-28T22:17:04.444Z,99751.50
2023-10-28T22:19:31.308Z,99741.47
2023-10-28T22:21:58.063Z,99702.81
2023-10-28T22:24:24.985Z,99753.41
2023-10-28T22:26:51.861Z,99701.06
2023-10-28T22:29:18.639Z,99675.56
2023-10-28T22:31:45.366Z,99747.75
2023-10-28T22:34:12.373Z,99719.13
2023-10-28T22:36:39.095Z,99750.72
2023-10-28T22:39:06.499Z,99736.97
2023-10-28T22:41:33.316Z,99725.44
2023-10-28T22:44:00.628Z,99738.41
2023-10-28T22:46:30.530Z,99742.00
2023-10-28T22:48:57.717Z,99722.00
2023-10-28T22:51:24.439Z,99726.47
2023-10-28T22:53:51.310Z,99714.66
2023-10-28T22:56:18.254Z,99679.22
2023-10-28T22:58:45.029Z,99710.13
2023-10-28T23:01:11.938Z,99742.09
2023-10-28T23:03:40.864Z,99699.50
2023-10-28T23:06:07.833Z,99745.06
2023-10-28T23:08:34.676Z,99736.91
2023-10-28T23:11:01.461Z,99653.66
2023-10-28T23:13:29.087Z,99708.09
2023-10-28T23:15:55.795Z,99746.19
2023-10-28T23:18:22.649Z,99741.38
2023-10-28T23:20:52.025Z,99739.25
2023-10-28T23:23:19.057Z,99738.75
2023-10-28T23:25:45.800Z,99681.69
2023-10-28T23:28:12.494Z,99730.19
2023-10-28T23:30:39.238Z,99739.09
2023-10-28T23:33:06.185Z,99729.75
2023-10-28T23:35:33.182Z,99733.19
2023-10-28T23:38:03.072Z,99733.09
2023-10-28T23:40:32.304Z,99672.94
2023-10-28T23:42:59.285Z,99677.06
2023-10-28T23:45:26.160Z,99715.69
2023-10-28T23:47:52.914Z,99726.97
2023-10-28T23:50:19.786Z,99709.44
2023-10-28T23:52:46.561Z,99717.19
2023-10-28T23:55:13.398Z,99699.88
2023-10-28T23:57:40.167Z,99722.06
